sensor_id;sensor_type;location;lat;lon;timestamp;pressure;altitude;pressure_sealevel;temperature;humidity
52983;BME280;48698;45.736;13.926;2023-04-10T00:02:52;98167.56;;;5.88;100.00
52983;BME280;48698;45.736;13.926;2023-04-10T00:07:55;98176.97;;;5.98;100.00
52983;BME280;48698;45.736;13.926;2023-04-10T00:12:58;98052.06;;;4.95;100.00
52983;BME280;48698;45.736;13.926;2023-04-10T00:18:02;97865.59;;;4.06;100.00
52983;BME280;48698;45.736;13.926;2023-04-10T00:23:05;98153.78;;;5.76;100.00
52983;BME280;48698;45.736;13.926;2023-04-10T00:28:08;98174.00;;;5.75;100.00
52983;BME280;48698;45.736;13.926;2023-04-10T00:33:11;98183.13;;;5.99;100.00
52983;BME280;48698;45.736;13.926;2023-04-10T00:38:13;97911.34;;;4.37;100.00
52983;BME280;48698;45.736;13.926;2023-04-10T00:43:17;97982.56;;;4.65;100.00
52983;BME280;48698;45.736;13.926;2023-04-10T00:48:21;97858.44;;;4.12;100.00
52983;BME280;48698;45.736;13.926;2023-04-10T00:53:24;98120.66;;;5.65;100.00
52983;BME280;48698;45.736;13.926;2023-04-10T00:58:27;98171.25;;;5.80;100.00
52983;BME280;48698;45.736;13.926;2023-04-10T01:03:30;98047.03;;;4.84;100.00
52983;BME280;48698;45.736;13.926;2023-04-10T01:14:13;98141.31;;;5.45;100.00
52983;BME280;48698;45.736;13.926;2023-04-10T01:20:04;97891.88;;;4.04;100.00
52983;BME280;48698;45.736;13.926;2023-04-10T01:30:18;98050.16;;;4.61;100.00
52983;BME280;48698;45.736;13.926;2023-04-10T01:35:24;98107.72;;;5.18;100.00
52983;BME280;48698;45.736;13.926;2023-04-10T01:40:28;98151.88;;;5.44;100.00
52983;BME280;48698;45.736;13.926;2023-04-10T01:45:32;98140.22;;;5.55;100.00
52983;BME280;48698;45.736;13.926;2023-04-10T01:50:35;98179.63;;;5.60;100.00
52983;BME280;48698;45.736;13.926;2023-04-10T01:55:39;98160.88;;;5.35;100.00
52983;BME280;48698;45.736;13.926;2023-04-10T02:00:43;98190.28;;;5.54;100.00
52983;BME280;48698;45.736;13.926;2023-04-10T02:06:13;98198.09;;;5.58;100.00
52983;BME280;48698;45.736;13.926;2023-04-10T02:11:26;98188.91;;;5.38;100.00
52983;BME280;48698;45.736;13.926;2023-04-10T02:16:35;98205.56;;;5.38;100.00
52983;BME280;48698;45.736;13.926;2023-04-10T02:21:40;98151.38;;;5.28;100.00
52983;BME280;48698;45.736;13.926;2023-04-10T02:26:46;98165.69;;;5.15;100.00
52983;BME280;48698;45.736;13.926;2023-04-10T02:31:49;98085.19;;;4.65;100.00
52983;BME280;48698;45.736;13.926;2023-04-10T02:36:52;98086.72;;;4.75;100.00
52983;BME280;48698;45.736;13.926;2023-04-10T02:41:55;98183.44;;;5.47;100.00
52983;BME280;48698;45.736;13.926;2023-04-10T02:46:58;98091.41;;;5.02;100.00
52983;BME280;48698;45.736;13.926;2023-04-10T02:52:01;98016.75;;;4.66;100.00
52983;BME280;48698;45.736;13.926;2023-04-10T02:57:05;98013.41;;;4.60;100.00
52983;BME280;48698;45.736;13.926;2023-04-10T03:02:08;98160.34;;;5.58;100.00
52983;BME280;48698;45.736;13.926;2023-04-10T03:07:10;98047.72;;;4.94;100.00
52983;BME280;48698;45.736;13.926;2023-04-10T03:12:13;98180.41;;;5.63;100.00
52983;BME280;48698;45.736;13.926;2023-04-10T03:17:16;98176.09;;;5.61;100.00
52983;BME280;48698;45.736;13.926;2023-04-10T03:22:20;98135.91;;;5.13;100.00
52983;BME280;48698;45.736;13.926;2023-04-10T03:27:23;98075.09;;;4.87;100.00
52983;BME280;48698;45.736;13.926;2023-04-10T03:32:26;98172.50;;;5.25;100.00
52983;BME280;48698;45.736;13.926;2023-04-10T03:37:29;98002.72;;;4.26;100.00
52983;BME280;48698;45.736;13.926;2023-04-10T03:42:34;98137.16;;;5.37;100.00
52983;BME280;48698;45.736;13.926;2023-04-10T03:47:37;98001.13;;;4.59;100.00
52983;BME280;48698;45.736;13.926;2023-04-10T03:52:40;98034.03;;;4.78;100.00
52983;BME280;48698;45.736;13.926;2023-04-10T03:57:47;98092.25;;;5.03;100.00
52983;BME280;48698;45.736;13.926;2023-04-10T04:02:50;97874.84;;;3.39;100.00
52983;BME280;48698;45.736;13.926;2023-04-10T04:07:53;98130.09;;;4.97;100.00
52983;BME280;48698;45.736;13.926;2023-04-10T04:12:56;97841.56;;;3.41;100.00
52983;BME280;48698;45.736;13.926;2023-04-10T04:17:59;97949.88;;;3.97;100.00
52983;BME280;48698;45.736;13.926;2023-04-10T04:23:02;98125.09;;;4.87;100.00
52983;BME280;48698;45.736;13.926;2023-04-10T04:28:06;97904.13;;;3.18;100.00
52983;BME280;48698;45.736;13.926;2023-04-10T04:33:09;97891.59;;;3.32;100.00
52983;BME280;48698;45.736;13.926;2023-04-10T04:38:12;97875.28;;;3.15;100.00
52983;BME280;48698;45.736;13.926;2023-04-10T04:43:15;98069.78;;;4.47;100.00
52983;BME280;48698;45.736;13.926;2023-04-10T04:48:19;98210.88;;;4.95;100.00
52983;BME280;48698;45.736;13.926;2023-04-10T04:53:22;97978.63;;;3.58;100.00
52983;BME280;48698;45.736;13.926;2023-04-10T04:58:25;98128.78;;;4.34;100.00
52983;BME280;48698;45.736;13.926;2023-04-10T05:03:28;98169.47;;;4.59;100.00
52983;BME280;48698;45.736;13.926;2023-04-10T05:08:32;98099.25;;;4.18;100.00
52983;BME280;48698;45.736;13.926;2023-04-10T05:13:34;97954.59;;;3.32;100.00
52983;BME280;48698;45.736;13.926;2023-04-10T05:18:47;98144.94;;;4.60;100.00
52983;BME280;48698;45.736;13.926;2023-04-10T05:23:50;98230.78;;;5.10;100.00
52983;BME280;48698;45.736;13.926;2023-04-10T05:28:53;98140.47;;;4.63;100.00
52983;BME280;48698;45.736;13.926;2023-04-10T05:33:56;97916.88;;;3.38;100.00
52983;BME280;48698;45.736;13.926;2023-04-10T05:38:59;98154.59;;;5.01;100.00
52983;BME280;48698;45.736;13.926;2023-04-10T05:44:01;98062.06;;;4.38;100.00
52983;BME280;48698;45.736;13.926;2023-04-10T05:49:04;98141.34;;;5.04;100.00
52983;BME280;48698;45.736;13.926;2023-04-10T05:54:07;98187.97;;;5.40;100.00
52983;BME280;48698;45.736;13.926;2023-04-10T05:59:10;98090.22;;;4.76;100.00
52983;BME280;48698;45.736;13.926;2023-04-10T06:04:14;98132.56;;;5.05;100.00
52983;BME280;48698;45.736;13.926;2023-04-10T06:09:17;97971.47;;;4.11;100.00
52983;BME280;48698;45.736;13.926;2023-04-10T06:14:20;98059.59;;;4.72;100.00
52983;BME280;48698;45.736;13.926;2023-04-10T06:19:23;97961.00;;;4.09;100.00
52983;BME280;48698;45.736;13.926;2023-04-10T06:24:25;98131.66;;;5.46;100.00
52983;BME280;48698;45.736;13.926;2023-04-10T06:29:28;98119.59;;;5.36;100.00
52983;BME280;48698;45.736;13.926;2023-04-10T06:34:31;98099.25;;;5.42;100.00
52983;BME280;48698;45.736;13.926;2023-04-10T06:39:33;98160.53;;;5.89;100.00
52983;BME280;48698;45.736;13.926;2023-04-10T06:44:36;98215.28;;;6.48;100.00
52983;BME280;48698;45.736;13.926;2023-04-10T06:49:39;98080.44;;;5.57;100.00
52983;BME280;48698;45.736;13.926;2023-04-10T06:54:41;98167.19;;;6.37;100.00
52983;BME280;48698;45.736;13.926;2023-04-10T06:59:44;98048.13;;;5.85;100.00
52983;BME280;48698;45.736;13.926;2023-04-10T07:04:47;98209.72;;;6.91;100.00
52983;BME280;48698;45.736;13.926;2023-04-10T07:09:50;98042.16;;;6.12;100.00
52983;BME280;48698;45.736;13.926;2023-04-10T07:14:53;98145.56;;;6.88;100.00
52983;BME280;48698;45.736;13.926;2023-04-10T07:19:57;98211.41;;;7.54;100.00
52983;BME280;48698;45.736;13.926;2023-04-10T07:25:00;97983.47;;;6.36;100.00
52983;BME280;48698;45.736;13.926;2023-04-10T07:30:03;98208.50;;;7.91;100.00
52983;BME280;48698;45.736;13.926;2023-04-10T07:35:07;98207.59;;;7.92;100.00
52983;BME280;48698;45.736;13.926;2023-04-10T07:40:10;98094.59;;;7.43;100.00
52983;BME280;48698;45.736;13.926;2023-04-10T07:45:13;97990.00;;;6.82;100.00
52983;BME280;48698;45.736;13.926;2023-04-10T07:50:15;98207.25;;;8.56;100.00
52983;BME280;48698;45.736;13.926;2023-04-10T07:55:19;98202.91;;;8.78;100.00
52983;BME280;48698;45.736;13.926;2023-04-10T08:00:21;98017.47;;;7.82;100.00
52983;BME280;48698;45.736;13.926;2023-04-10T08:05:25;98158.75;;;9.04;100.00
52983;BME280;48698;45.736;13.926;2023-04-10T08:10:28;98139.00;;;9.12;100.00
52983;BME280;48698;45.736;13.926;2023-04-10T08:15:30;98103.22;;;9.01;100.00
52983;BME280;48698;45.736;13.926;2023-04-10T08:20:33;98241.91;;;10.17;100.00
52983;BME280;48698;45.736;13.926;2023-04-10T08:25:38;98241.22;;;10.54;100.00
52983;BME280;48698;45.736;13.926;2023-04-10T08:30:41;98231.13;;;10.64;100.00
52983;BME280;48698;45.736;13.926;2023-04-10T08:35:47;98143.50;;;10.82;96.82
52983;BME280;48698;45.736;13.926;2023-04-10T08:40:53;98193.03;;;10.43;87.19
52983;BME280;48698;45.736;13.926;2023-04-10T08:45:56;98234.25;;;10.73;85.57
52983;BME280;48698;45.736;13.926;2023-04-10T08:51:00;98215.91;;;10.87;84.48
52983;BME280;48698;45.736;13.926;2023-04-10T08:56:07;98166.88;;;10.74;84.98
52983;BME280;48698;45.736;13.926;2023-04-10T09:01:13;98066.91;;;10.11;81.41
52983;BME280;48698;45.736;13.926;2023-04-10T09:06:17;98238.91;;;11.86;81.55
52983;BME280;48698;45.736;13.926;2023-04-10T09:11:21;97985.81;;;10.83;80.31
52983;BME280;48698;45.736;13.926;2023-04-10T09:16:27;98077.38;;;11.70;78.65
52983;BME280;48698;45.736;13.926;2023-04-10T09:21:31;97984.06;;;11.56;76.58
52983;BME280;48698;45.736;13.926;2023-04-10T09:26:34;98088.75;;;12.93;75.41
52983;BME280;48698;45.736;13.926;2023-04-10T09:31:41;98222.78;;;13.31;72.12
52983;BME280;48698;45.736;13.926;2023-04-10T09:36:58;98213.06;;;13.13;71.65
52983;BME280;48698;45.736;13.926;2023-04-10T09:42:03;98147.91;;;13.34;71.61
52983;BME280;48698;45.736;13.926;2023-04-10T09:52:21;98195.59;;;13.40;67.93
52983;BME280;48698;45.736;13.926;2023-04-10T09:57:27;98191.53;;;13.33;67.99
52983;BME280;48698;45.736;13.926;2023-04-10T10:02:30;98195.44;;;13.43;67.64
52983;BME280;48698;45.736;13.926;2023-04-10T10:07:38;97912.25;;;12.40;65.53
52983;BME280;48698;45.736;13.926;2023-04-10T10:12:54;98128.22;;;13.53;65.58
52983;BME280;48698;45.736;13.926;2023-04-10T10:18:14;98147.94;;;13.66;63.65
52983;BME280;48698;45.736;13.926;2023-04-10T10:23:20;98063.41;;;13.82;63.99
52983;BME280;48698;45.736;13.926;2023-04-10T10:28:24;98154.69;;;15.23;65.83
52983;BME280;48698;45.736;13.926;2023-04-10T10:33:29;98088.47;;;15.41;62.35
52983;BME280;48698;45.736;13.926;2023-04-10T10:38:33;98158.84;;;15.57;64.20
52983;BME280;48698;45.736;13.926;2023-04-10T10:43:57;98059.28;;;14.66;63.47
52983;BME280;48698;45.736;13.926;2023-04-10T10:49:12;97968.69;;;14.03;65.01
52983;BME280;48698;45.736;13.926;2023-04-10T10:54:31;98161.66;;;15.26;65.55
52983;BME280;48698;45.736;13.926;2023-04-10T11:04:50;98151.00;;;15.95;65.84
52983;BME280;48698;45.736;13.926;2023-04-10T11:09:53;98094.56;;;15.29;64.97
52983;BME280;48698;45.736;13.926;2023-04-10T11:15:00;98031.31;;;14.85;66.71
52983;BME280;48698;45.736;13.926;2023-04-10T11:20:04;98092.00;;;15.27;67.65
52983;BME280;48698;45.736;13.926;2023-04-10T11:25:09;98143.31;;;15.48;67.37
52983;BME280;48698;45.736;13.926;2023-04-10T11:30:28;98129.00;;;15.21;67.51
52983;BME280;48698;45.736;13.926;2023-04-10T11:35:31;98025.56;;;14.49;67.99
52983;BME280;48698;45.736;13.926;2023-04-10T11:40:34;98116.34;;;14.94;68.79
52983;BME280;48698;45.736;13.926;2023-04-10T11:45:37;98130.75;;;14.78;66.17
52983;BME280;48698;45.736;13.926;2023-04-10T11:50:40;97845.53;;;13.35;69.48
52983;BME280;48698;45.736;13.926;2023-04-10T11:55:43;98047.53;;;14.54;66.31
52983;BME280;48698;45.736;13.926;2023-04-10T12:05:59;97976.44;;;14.52;67.99
52983;BME280;48698;45.736;13.926;2023-04-10T12:11:02;97873.59;;;14.01;67.10
52983;BME280;48698;45.736;13.926;2023-04-10T12:16:06;97918.94;;;14.30;68.20
52983;BME280;48698;45.736;13.926;2023-04-10T12:21:10;98059.50;;;15.05;67.40
52983;BME280;48698;45.736;13.926;2023-04-10T12:26:17;98111.97;;;15.22;68.59
52983;BME280;48698;45.736;13.926;2023-04-10T12:36:32;97798.38;;;13.50;64.00
52983;BME280;48698;45.736;13.926;2023-04-10T12:41:37;98058.63;;;15.47;65.10
52983;BME280;48698;45.736;13.926;2023-04-10T12:46:42;98076.72;;;15.84;64.50
52983;BME280;48698;45.736;13.926;2023-04-10T12:52:00;98022.09;;;15.46;65.12
52983;BME280;48698;45.736;13.926;2023-04-10T12:57:03;97981.53;;;15.66;64.57
52983;BME280;48698;45.736;13.926;2023-04-10T13:02:05;98008.94;;;15.15;63.70
52983;BME280;48698;45.736;13.926;2023-04-10T13:07:18;98008.66;;;15.19;63.14
52983;BME280;48698;45.736;13.926;2023-04-10T13:12:21;97737.31;;;13.74;63.41
52983;BME280;48698;45.736;13.926;2023-04-10T13:17:25;97882.38;;;14.59;63.10
52983;BME280;48698;45.736;13.926;2023-04-10T13:22:28;97770.78;;;14.08;62.77
52983;BME280;48698;45.736;13.926;2023-04-10T13:27:37;97940.56;;;15.11;63.26
52983;BME280;48698;45.736;13.926;2023-04-10T13:32:42;97957.69;;;15.49;64.48
52983;BME280;48698;45.736;13.926;2023-04-10T13:37:51;98049.31;;;15.81;61.17
52983;BME280;48698;45.736;13.926;2023-04-10T13:43:17;98052.78;;;15.95;61.28
52983;BME280;48698;45.736;13.926;2023-04-10T13:48:20;97961.31;;;15.48;62.14
52983;BME280;48698;45.736;13.926;2023-04-10T13:53:38;97844.34;;;14.82;62.01
52983;BME280;48698;45.736;13.926;2023-04-10T13:58:41;97883.81;;;15.06;61.25
52983;BME280;48698;45.736;13.926;2023-04-10T14:03:44;98013.50;;;16.21;60.29
52983;BME280;48698;45.736;13.926;2023-04-10T14:08:56;97844.06;;;15.14;60.82
52983;BME280;48698;45.736;13.926;2023-04-10T14:13:59;97829.22;;;14.95;60.11
52983;BME280;48698;45.736;13.926;2023-04-10T14:19:02;97758.13;;;14.79;60.52
52983;BME280;48698;45.736;13.926;2023-04-10T14:24:05;98014.69;;;16.69;59.73
52983;BME280;48698;45.736;13.926;2023-04-10T14:29:08;97915.31;;;15.56;59.34
52983;BME280;48698;45.736;13.926;2023-04-10T14:44:28;97887.78;;;16.31;61.31
52983;BME280;48698;45.736;13.926;2023-04-10T14:49:33;97726.75;;;14.95;60.09
52983;BME280;48698;45.736;13.926;2023-04-10T14:54:36;97794.06;;;15.41;59.76
52983;BME280;48698;45.736;13.926;2023-04-10T14:59:39;97784.38;;;15.26;59.02
52983;BME280;48698;45.736;13.926;2023-04-10T15:04:42;97946.94;;;16.28;60.04
52983;BME280;48698;45.736;13.926;2023-04-10T15:09:46;97967.91;;;16.73;59.23
52983;BME280;48698;45.736;13.926;2023-04-10T15:30:24;98007.50;;;16.57;57.83
52983;BME280;48698;45.736;13.926;2023-04-10T15:35:27;97927.81;;;16.59;58.86
52983;BME280;48698;45.736;13.926;2023-04-10T15:40:34;97898.41;;;16.32;57.99
52983;BME280;48698;45.736;13.926;2023-04-10T15:45:44;97973.34;;;16.84;57.52
52983;BME280;48698;45.736;13.926;2023-04-10T15:51:04;97921.00;;;16.16;59.12
52983;BME280;48698;45.736;13.926;2023-04-10T15:56:14;97906.41;;;15.55;61.31
52983;BME280;48698;45.736;13.926;2023-04-10T16:01:18;97963.44;;;16.22;61.07
52983;BME280;48698;45.736;13.926;2023-04-10T16:06:27;97925.47;;;15.90;60.57
52983;BME280;48698;45.736;13.926;2023-04-10T16:11:55;97958.13;;;16.47;59.31
52983;BME280;48698;45.736;13.926;2023-04-10T16:17:16;97955.34;;;16.36;59.97
52983;BME280;48698;45.736;13.926;2023-04-10T16:22:21;97951.06;;;16.33;59.02
52983;BME280;48698;45.736;13.926;2023-04-10T16:27:35;97844.75;;;15.30;58.38
52983;BME280;48698;45.736;13.926;2023-04-10T16:32:38;97958.28;;;16.06;59.31
52983;BME280;48698;45.736;13.926;2023-04-10T16:37:55;97874.03;;;15.19;57.95
52983;BME280;48698;45.736;13.926;2023-04-10T16:43:04;97960.22;;;16.04;58.11
52983;BME280;48698;45.736;13.926;2023-04-10T16:48:07;97727.13;;;14.49;57.85
52983;BME280;48698;45.736;13.926;2023-04-10T16:53:09;97693.50;;;14.60;56.13
52983;BME280;48698;45.736;13.926;2023-04-10T16:58:12;97754.72;;;14.50;57.88
52983;BME280;48698;45.736;13.926;2023-04-10T17:03:16;97793.66;;;15.08;55.76
52983;BME280;48698;45.736;13.926;2023-04-10T17:08:19;97950.53;;;16.66;56.93
52983;BME280;48698;45.736;13.926;2023-04-10T17:13:23;97627.06;;;14.41;57.56
52983;BME280;48698;45.736;13.926;2023-04-10T17:18:25;97906.25;;;15.44;59.01
52983;BME280;48698;45.736;13.926;2023-04-10T17:23:29;97822.47;;;14.49;59.63
52983;BME280;48698;45.736;13.926;2023-04-10T17:28:33;97937.50;;;15.17;60.54
52983;BME280;48698;45.736;13.926;2023-04-10T17:33:37;97932.25;;;13.72;63.29
52983;BME280;48698;45.736;13.926;2023-04-10T17:38:40;97952.59;;;13.59;63.94
52983;BME280;48698;45.736;13.926;2023-04-10T17:43:44;97945.38;;;12.67;67.96
52983;BME280;48698;45.736;13.926;2023-04-10T17:48:48;97846.22;;;11.64;69.97
52983;BME280;48698;45.736;13.926;2023-04-10T17:57:11;97896.88;;;11.79;71.48
52983;BME280;48698;45.736;13.926;2023-04-10T18:02:15;97818.63;;;11.15;73.21
52983;BME280;48698;45.736;13.926;2023-04-10T18:07:28;97878.38;;;10.89;76.03
52983;BME280;48698;45.736;13.926;2023-04-10T18:12:42;97834.88;;;10.37;77.32
52983;BME280;48698;45.736;13.926;2023-04-10T18:17:45;97881.47;;;9.85;80.37
52983;BME280;48698;45.736;13.926;2023-04-10T18:22:49;97976.22;;;9.81;87.66
52983;BME280;48698;45.736;13.926;2023-04-10T18:27:52;97953.22;;;10.02;88.97
52983;BME280;48698;45.736;13.926;2023-04-10T18:33:16;97982.88;;;9.92;95.36
52983;BME280;48698;45.736;13.926;2023-04-10T18:38:25;97990.56;;;9.98;100.00
52983;BME280;48698;45.736;13.926;2023-04-10T18:43:28;97688.72;;;7.84;100.00
52983;BME280;48698;45.736;13.926;2023-04-10T18:48:33;97991.16;;;8.99;100.00
52983;BME280;48698;45.736;13.926;2023-04-10T18:53:38;97884.13;;;8.38;100.00
52983;BME280;48698;45.736;13.926;2023-04-10T18:58:42;97981.09;;;8.39;100.00
52983;BME280;48698;45.736;13.926;2023-04-10T19:03:45;97937.63;;;8.46;100.00
52983;BME280;48698;45.736;13.926;2023-04-10T19:08:53;97925.75;;;7.85;100.00
52983;BME280;48698;45.736;13.926;2023-04-10T19:13:58;97727.16;;;6.22;100.00
52983;BME280;48698;45.736;13.926;2023-04-10T19:19:01;97707.97;;;5.61;100.00
52983;BME280;48698;45.736;13.926;2023-04-10T19:24:05;97953.09;;;6.21;100.00
52983;BME280;48698;45.736;13.926;2023-04-10T19:29:09;97709.28;;;4.54;100.00
52983;BME280;48698;45.736;13.926;2023-04-10T19:34:13;97983.78;;;6.55;100.00
52983;BME280;48698;45.736;13.926;2023-04-10T19:39:27;97962.94;;;5.16;100.00
52983;BME280;48698;45.736;13.926;2023-04-10T19:44:30;97771.28;;;4.29;100.00
52983;BME280;48698;45.736;13.926;2023-04-10T19:49:33;97841.47;;;5.30;100.00
52983;BME280;48698;45.736;13.926;2023-04-10T19:54:36;98020.31;;;6.39;100.00
52983;BME280;48698;45.736;13.926;2023-04-10T19:59:38;97880.44;;;4.47;100.00
52983;BME280;48698;45.736;13.926;2023-04-10T20:04:41;97846.91;;;4.55;100.00
52983;BME280;48698;45.736;13.926;2023-04-10T20:09:48;97903.19;;;5.20;100.00
52983;BME280;48698;45.736;13.926;2023-04-10T20:14:51;97876.94;;;5.17;100.00
52983;BME280;48698;45.736;13.926;2023-04-10T20:20:00;97913.84;;;4.79;100.00
52983;BME280;48698;45.736;13.926;2023-04-10T20:25:12;97704.16;;;2.99;100.00
52983;BME280;48698;45.736;13.926;2023-04-10T20:30:16;98015.28;;;4.93;100.00
52983;BME280;48698;45.736;13.926;2023-04-10T20:35:31;97933.63;;;4.59;100.00
52983;BME280;48698;45.736;13.926;2023-04-10T20:40:34;97943.72;;;5.13;100.00
52983;BME280;48698;45.736;13.926;2023-04-10T20:45:38;98024.53;;;5.46;100.00
52983;BME280;48698;45.736;13.926;2023-04-10T20:50:41;97793.41;;;4.21;100.00
52983;BME280;48698;45.736;13.926;2023-04-10T20:55:45;97734.91;;;4.12;100.00
52983;BME280;48698;45.736;13.926;2023-04-10T21:00:51;98028.47;;;5.98;100.00
52983;BME280;48698;45.736;13.926;2023-04-10T21:05:54;97920.38;;;4.62;100.00
52983;BME280;48698;45.736;13.926;2023-04-10T21:10:57;98033.31;;;5.10;100.00
52983;BME280;48698;45.736;13.926;2023-04-10T21:16:00;97763.69;;;3.40;100.00
52983;BME280;48698;45.736;13.926;2023-04-10T21:21:04;97908.44;;;4.85;100.00
52983;BME280;48698;45.736;13.926;2023-04-10T21:26:06;97999.88;;;5.13;100.00
52983;BME280;48698;45.736;13.926;2023-04-10T21:31:09;97937.13;;;4.60;100.00
52983;BME280;48698;45.736;13.926;2023-04-10T21:36:12;97958.38;;;4.49;100.00
52983;BME280;48698;45.736;13.926;2023-04-10T21:41:15;97894.63;;;4.38;100.00
52983;BME280;48698;45.736;13.926;2023-04-10T21:46:18;97673.28;;;2.71;100.00
52983;BME280;48698;45.736;13.926;2023-04-10T21:51:21;97733.41;;;3.24;100.00
52983;BME280;48698;45.736;13.926;2023-04-10T21:56:26;97883.75;;;4.15;100.00
52983;BME280;48698;45.736;13.926;2023-04-10T22:01:29;97970.94;;;5.12;100.00
52983;BME280;48698;45.736;13.926;2023-04-10T22:06:32;97733.53;;;3.18;100.00
52983;BME280;48698;45.736;13.926;2023-04-10T22:11:45;97962.88;;;4.44;100.00
52983;BME280;48698;45.736;13.926;2023-04-10T22:16:48;97819.63;;;2.49;100.00
52983;BME280;48698;45.736;13.926;2023-04-10T22:21:50;98009.13;;;4.13;100.00
52983;BME280;48698;45.736;13.926;2023-04-10T22:26:53;97905.13;;;3.57;100.00
52983;BME280;48698;45.736;13.926;2023-04-10T22:31:56;97854.78;;;3.78;100.00
52983;BME280;48698;45.736;13.926;2023-04-10T22:36:59;97886.47;;;3.26;100.00
52983;BME280;48698;45.736;13.926;2023-04-10T22:42:11;97999.78;;;3.51;100.00
52983;BME280;48698;45.736;13.926;2023-04-10T22:47:14;97986.72;;;3.46;100.00
52983;BME280;48698;45.736;13.926;2023-04-10T22:52:17;97865.50;;;2.76;100.00
52983;BME280;48698;45.736;13.926;2023-04-10T22:57:19;97851.38;;;2.83;100.00
52983;BME280;48698;45.736;13.926;2023-04-10T23:02:22;97947.88;;;3.16;100.00
52983;BME280;48698;45.736;13.926;2023-04-10T23:07:26;98014.78;;;3.92;100.00
52983;BME280;48698;45.736;13.926;2023-04-10T23:12:29;98004.38;;;3.87;100.00
52983;BME280;48698;45.736;13.926;2023-04-10T23:17:32;97971.09;;;3.86;100.00
52983;BME280;48698;45.736;13.926;2023-04-10T23:22:35;97714.09;;;1.87;100.00
52983;BME280;48698;45.736;13.926;2023-04-10T23:27:37;98012.88;;;4.00;100.00
52983;BME280;48698;45.736;13.926;2023-04-10T23:32:40;97969.44;;;3.82;100.00
52983;BME280;48698;45.736;13.926;2023-04-10T23:38:01;97986.09;;;3.32;100.00
52983;BME280;48698;45.736;13.926;2023-04-10T23:43:04;98010.47;;;3.39;100.00
52983;BME280;48698;45.736;13.926;2023-04-10T23:48:07;97712.44;;;1.80;100.00
52983;BME280;48698;45.736;13.926;2023-04-10T23:53:12;98009.00;;;3.24;100.00
52983;BME280;48698;45.736;13.926;2023-04-10T23:58:15;97968.84;;;2.64;100.00
